createdAt,value
2019-04-03T00:00:58.102Z,0.00
2019-04-03T00:01:58.105Z,0.00
2019-04-03T00:02:58.068Z,0.00
2019-04-03T00:03:58.053Z,0.00
2019-04-03T00:04:58.093Z,0.00
2019-04-03T00:05:58.049Z,0.00
2019-04-03T00:06:58.038Z,0.00
2019-04-03T00:07:58.002Z,0.00
2019-04-03T00:08:57.990Z,0.00
2019-04-03T00:09:57.992Z,0.00
2019-04-03T00:10:58.093Z,0.00
2019-04-03T00:11:58.000Z,0.00
2019-04-03T00:12:57.948Z,0.00
2019-04-03T00:13:57.940Z,0.00
2019-04-03T00:14:57.940Z,0.00
2019-04-03T00:15:58.119Z,0.00
2019-04-03T00:16:57.904Z,0.00
2019-04-03T00:17:57.923Z,0.00
2019-04-03T00:18:57.987Z,0.00
2019-04-03T00:19:57.876Z,0.00
2019-04-03T00:20:57.870Z,0.00
2019-04-03T00:21:57.858Z,0.00
2019-04-03T00:22:57.859Z,0.00
2019-04-03T00:23:57.836Z,0.00
2019-04-03T00:24:57.812Z,0.00
2019-04-03T00:25:57.806Z,0.00
2019-04-03T00:26:57.794Z,0.00
2019-04-03T00:27:57.801Z,0.00
2019-04-03T00:28:57.791Z,0.00
2019-04-03T00:29:57.779Z,0.00
2019-04-03T00:30:57.760Z,0.00
2019-04-03T00:31:57.734Z,0.00
2019-04-03T00:32:57.756Z,0.00
2019-04-03T00:33:57.724Z,0.00
2019-04-03T00:34:57.709Z,0.00
2019-04-03T00:35:57.724Z,0.00
2019-04-03T00:36:57.687Z,0.00
2019-04-03T00:37:57.689Z,0.00
2019-04-03T00:38:57.682Z,0.00
2019-04-03T00:39:57.662Z,0.00
2019-04-03T00:40:57.637Z,0.00
2019-04-03T00:41:57.631Z,0.00
2019-04-03T00:42:57.653Z,0.00
2019-04-03T00:43:57.618Z,0.00
2019-04-03T00:44:57.602Z,0.00
2019-04-03T00:45:57.607Z,0.00
2019-04-03T00:46:57.577Z,0.00
2019-04-03T00:47:57.674Z,0.00
2019-04-03T00:48:57.587Z,0.00
2019-04-03T00:49:57.553Z,0.00
2019-04-03T00:50:57.677Z,0.00
2019-04-03T00:51:58.073Z,0.00
2019-04-03T00:52:58.019Z,0.00
2019-04-03T00:53:58.111Z,0.00
2019-04-03T00:54:57.527Z,0.00
2019-04-03T00:55:57.474Z,0.00
2019-04-03T00:56:57.471Z,0.00
2019-04-03T00:57:57.490Z,0.00
2019-04-03T00:58:57.444Z,0.00
2019-04-03T00:59:57.421Z,0.00
2019-04-03T01:00:57.417Z,0.00
2019-04-03T01:01:57.604Z,0.00
2019-04-03T01:02:58.866Z,0.00
2019-04-03T01:03:58.808Z,0.00
2019-04-03T01:04:58.483Z,0.00
2019-04-03T01:05:58.350Z,0.00
2019-04-03T01:06:58.630Z,0.00
2019-04-03T01:07:59.213Z,0.00
2019-04-03T01:08:59.025Z,0.00
2019-04-03T01:09:57.804Z,0.00
2019-04-03T01:10:57.308Z,0.00
2019-04-03T01:11:57.295Z,0.00
2019-04-03T01:12:57.299Z,0.00
2019-04-03T01:13:57.293Z,0.00
2019-04-03T01:14:57.260Z,0.00
2019-04-03T01:15:57.249Z,0.00
2019-04-03T01:16:57.244Z,0.00
2019-04-03T01:17:57.228Z,0.00
2019-04-03T01:18:57.235Z,0.00
2019-04-03T01:19:57.205Z,0.00
2019-04-03T01:20:57.208Z,0.00
2019-04-03T01:21:57.187Z,0.00
2019-04-03T01:22:57.166Z,0.00
2019-04-03T01:23:57.196Z,0.00
2019-04-03T01:24:57.259Z,0.00
2019-04-03T01:25:57.147Z,0.00
2019-04-03T01:26:57.128Z,0.00
2019-04-03T01:27:57.145Z,0.00
2019-04-03T01:28:57.128Z,0.00
2019-04-03T01:29:57.105Z,0.00
2019-04-03T01:30:57.087Z,0.00
2019-04-03T01:31:57.079Z,0.00
2019-04-03T01:32:57.069Z,0.00
2019-04-03T01:33:57.063Z,0.00
2019-04-03T01:34:57.040Z,0.00
2019-04-03T01:35:57.020Z,0.00
2019-04-03T01:36:57.021Z,0.00
2019-04-03T01:37:57.014Z,0.00
2019-04-03T01:38:57.031Z,0.00
2019-04-03T01:39:56.986Z,0.00
2019-04-03T01:40:56.974Z,0.00
2019-04-03T01:41:56.956Z,0.00
2019-04-03T01:42:56.989Z,0.00
2019-04-03T01:43:56.957Z,0.00
2019-04-03T01:44:56.939Z,0.00
2019-04-03T01:45:57.325Z,0.00
2019-04-03T01:46:57.684Z,0.00
2019-04-03T01:47:58.212Z,0.00
2019-04-03T01:48:58.572Z,0.00
2019-04-03T01:49:58.608Z,0.00
2019-04-03T01:50:59.217Z,0.00
2019-04-03T01:51:56.854Z,0.00
2019-04-03T01:52:56.873Z,0.00
2019-04-03T01:53:56.830Z,0.00
2019-04-03T01:54:56.835Z,0.00
2019-04-03T01:55:56.801Z,0.00
2019-04-03T01:56:56.897Z,0.00
2019-04-03T01:57:56.781Z,0.00
2019-04-03T01:58:56.775Z,0.00
2019-04-03T01:59:56.780Z,0.00
2019-04-03T02:00:56.762Z,0.00
2019-04-03T02:01:56.743Z,0.00
2019-04-03T02:02:56.867Z,0.00
2019-04-03T02:03:56.833Z,0.00
2019-04-03T02:04:56.721Z,0.00
2019-04-03T02:05:56.860Z,0.00
2019-04-03T02:06:56.692Z,0.00
2019-04-03T02:07:56.668Z,0.00
2019-04-03T02:08:56.780Z,0.00
2019-04-03T02:09:56.672Z,0.00
2019-04-03T02:10:56.642Z,0.00
2019-04-03T02:11:56.625Z,0.00
2019-04-03T02:12:56.619Z,0.00
2019-04-03T02:13:56.625Z,0.00
2019-04-03T02:14:56.611Z,0.00
2019-04-03T02:15:56.583Z,0.00
2019-04-03T02:16:56.585Z,0.00
2019-04-03T02:17:56.560Z,0.00
2019-04-03T02:18:56.558Z,0.00
2019-04-03T02:19:56.997Z,0.00
2019-04-03T02:20:57.676Z,0.00
2019-04-03T02:21:58.207Z,0.00
2019-04-03T02:22:59.652Z,0.00
2019-04-03T02:23:56.494Z,0.00
2019-04-03T02:24:56.666Z,0.00
2019-04-03T02:25:56.471Z,0.00
2019-04-03T02:26:56.461Z,0.00
2019-04-03T02:27:56.445Z,0.00
2019-04-03T02:28:56.456Z,0.00
2019-04-03T02:29:56.478Z,0.00
2019-04-03T02:30:56.425Z,0.00
2019-04-03T02:31:56.404Z,0.00
2019-04-03T02:32:57.266Z,0.00
2019-04-03T02:33:56.403Z,0.00
2019-04-03T02:34:56.380Z,0.00
2019-04-03T02:35:56.546Z,0.00
2019-04-03T02:36:56.560Z,0.00
2019-04-03T02:37:56.334Z,0.00
2019-04-03T02:38:56.334Z,0.00
2019-04-03T02:39:59.067Z,0.00
2019-04-03T02:40:56.328Z,0.00
2019-04-03T02:41:56.356Z,0.00
2019-04-03T02:42:56.281Z,0.00
2019-04-03T02:43:56.275Z,0.00
2019-04-03T02:44:56.366Z,0.00
2019-04-03T02:45:57.242Z,0.00
2019-04-03T02:46:59.451Z,0.00
2019-04-03T02:47:56.276Z,0.00
2019-04-03T02:48:56.219Z,0.00
2019-04-03T02:49:56.209Z,0.00
2019-04-03T02:50:56.367Z,0.00
2019-04-03T02:51:56.206Z,0.00
2019-04-03T02:52:58.138Z,0.00
2019-04-03T02:53:56.244Z,0.00
2019-04-03T02:54:56.149Z,0.00
2019-04-03T02:55:56.320Z,0.00
2019-04-03T02:56:56.144Z,0.00
2019-04-03T02:57:56.146Z,0.00
2019-04-03T02:58:56.108Z,0.00
2019-04-03T02:59:58.756Z,0.00
2019-04-03T03:00:56.107Z,0.00
2019-04-03T03:01:56.245Z,0.00
2019-04-03T03:02:56.098Z,0.00
2019-04-03T03:03:56.247Z,0.00
2019-04-03T03:04:56.046Z,0.00
2019-04-03T03:05:59.279Z,0.00
2019-04-03T03:06:56.035Z,0.00
2019-04-03T03:07:56.170Z,0.00
2019-04-03T03:08:56.007Z,0.00
2019-04-03T03:09:56.024Z,0.00
2019-04-03T03:10:55.988Z,0.00
2019-04-03T03:11:56.957Z,0.00
2019-04-03T03:12:59.871Z,0.00
2019-04-03T03:13:56.937Z,0.00
2019-04-03T03:14:55.993Z,0.00
2019-04-03T03:15:55.936Z,0.00
2019-04-03T03:16:55.925Z,0.00
2019-04-03T03:17:56.297Z,0.00
2019-04-03T03:18:59.958Z,0.00
2019-04-03T03:19:57.037Z,0.00
2019-04-03T03:20:56.119Z,0.00
2019-04-03T03:21:55.864Z,0.00
2019-04-03T03:22:55.857Z,0.00
2019-04-03T03:23:57.174Z,0.00
2019-04-03T03:24:55.828Z,0.00
2019-04-03T03:25:55.823Z,0.00
2019-04-03T03:26:56.025Z,0.00
2019-04-03T03:27:55.794Z,0.00
2019-04-03T03:28:55.845Z,0.00
2019-04-03T03:29:58.558Z,0.00
2019-04-03T03:31:02.051Z,0.00
2019-04-03T03:32:09.828Z,0.00
2019-04-03T03:33:21.816Z,0.00
2019-04-03T03:34:01.627Z,0.00
2019-04-03T03:35:09.583Z,0.00
2019-04-03T03:35:57.014Z,0.00
2019-04-03T03:37:00.558Z,0.00
2019-04-03T03:37:56.676Z,0.00
2019-04-03T03:38:55.667Z,0.00
2019-04-03T03:39:55.652Z,0.00
2019-04-03T03:40:55.647Z,0.00
2019-04-03T03:41:57.555Z,0.00
2019-04-03T03:42:56.063Z,0.00
2019-04-03T03:43:55.618Z,0.00
2019-04-03T03:44:55.617Z,0.00
2019-04-03T03:45:55.720Z,0.00
2019-04-03T03:46:59.360Z,0.00
2019-04-03T03:47:56.877Z,0.00
2019-04-03T03:48:55.548Z,0.00
2019-04-03T03:49:55.563Z,0.00
2019-04-03T03:50:57.514Z,0.00
2019-04-03T03:51:55.954Z,0.00
2019-04-03T03:52:55.518Z,0.00
2019-04-03T03:53:55.730Z,0.00
2019-04-03T03:54:55.489Z,0.00
2019-04-03T03:55:58.425Z,0.00
2019-04-03T03:56:55.486Z,0.00
2019-04-03T03:57:55.473Z,0.00
2019-04-03T03:58:55.570Z,0.00
2019-04-03T03:59:55.431Z,0.00
2019-04-03T04:00:58.743Z,0.00
2019-04-03T04:01:55.431Z,0.00
2019-04-03T04:02:55.415Z,0.00
2019-04-03T04:03:55.573Z,0.00
2019-04-03T04:04:55.375Z,0.00
2019-04-03T04:05:56.416Z,0.00
2019-04-03T04:06:55.370Z,0.00
2019-04-03T04:07:55.666Z,0.00
2019-04-03T04:08:55.371Z,0.00
2019-04-03T04:09:55.333Z,0.00
2019-04-03T04:10:58.108Z,0.00
2019-04-03T04:11:55.509Z,0.00
2019-04-03T04:12:55.280Z,0.00
2019-04-03T04:13:55.751Z,0.00
2019-04-03T04:14:57.085Z,0.00
2019-04-03T04:15:55.267Z,0.00
2019-04-03T04:16:55.493Z,0.00
2019-04-03T04:17:55.243Z,4.00
2019-04-03T04:18:57.372Z,4.00
2019-04-03T04:19:55.201Z,0.00
2019-04-03T04:20:55.220Z,0.00
2019-04-03T04:21:55.209Z,4.00
2019-04-03T04:22:55.242Z,4.00
2019-04-03T04:23:55.984Z,4.00
2019-04-03T04:24:55.362Z,4.00
2019-04-03T04:25:55.141Z,4.00
2019-04-03T04:26:55.186Z,8.00
2019-04-03T04:27:55.120Z,8.00
2019-04-03T04:28:55.108Z,8.00
2019-04-03T04:29:55.094Z,8.00
2019-04-03T04:30:55.152Z,8.00
2019-04-03T04:31:55.098Z,12.00
2019-04-03T04:32:55.068Z,12.00
2019-04-03T04:33:55.114Z,12.00
2019-04-03T04:34:55.047Z,16.00
2019-04-03T04:35:55.025Z,16.00
2019-04-03T04:36:56.035Z,20.00
2019-04-03T04:37:55.888Z,20.00
2019-04-03T04:38:57.343Z,24.00
2019-04-03T04:39:54.983Z,28.00
2019-04-03T04:40:54.971Z,28.00
2019-04-03T04:41:54.981Z,32.00
2019-04-03T04:42:54.948Z,28.00
2019-04-03T04:43:54.950Z,32.00
2019-04-03T04:44:54.936Z,32.00
2019-04-03T04:45:54.985Z,36.00
2019-04-03T04:46:54.939Z,36.00
2019-04-03T04:47:54.931Z,44.00
2019-04-03T04:48:55.147Z,44.00
2019-04-03T04:49:54.902Z,48.00
2019-04-03T04:50:55.512Z,52.00
2019-04-03T04:51:56.672Z,56.00
2019-04-03T04:52:54.854Z,60.00
2019-04-03T04:53:54.829Z,64.00
2019-04-03T04:54:54.817Z,72.00
2019-04-03T04:55:54.810Z,76.00
2019-04-03T04:56:54.812Z,84.00
2019-04-03T04:57:54.799Z,92.00
2019-04-03T04:58:54.779Z,96.00
2019-04-03T04:59:54.778Z,104.00
2019-04-03T05:00:54.761Z,108.00
2019-04-03T05:01:54.743Z,120.00
2019-04-03T05:02:54.773Z,124.00
2019-04-03T05:03:54.911Z,132.00
2019-04-03T05:04:55.817Z,140.00
2019-04-03T05:05:57.361Z,144.00
2019-04-03T05:06:55.019Z,152.00
2019-04-03T05:07:54.988Z,160.00
2019-04-03T05:08:54.684Z,164.00
2019-04-03T05:09:54.690Z,172.00
2019-04-03T05:10:54.641Z,180.00
2019-04-03T05:11:54.644Z,184.00
2019-04-03T05:12:54.640Z,192.00
2019-04-03T05:13:54.615Z,200.00
2019-04-03T05:14:54.598Z,208.00
2019-04-03T05:15:54.904Z,216.00
2019-04-03T05:16:55.915Z,224.00
2019-04-03T05:17:57.092Z,232.00
2019-04-03T05:18:54.771Z,244.00
2019-04-03T05:19:54.559Z,252.00
2019-04-03T05:20:54.527Z,264.00
2019-04-03T05:21:54.527Z,272.00
2019-04-03T05:22:55.347Z,284.00
2019-04-03T05:23:56.112Z,292.00
2019-04-03T05:24:54.495Z,304.00
2019-04-03T05:25:54.468Z,312.00
2019-04-03T05:26:54.498Z,324.00
2019-04-03T05:27:54.450Z,332.00
2019-04-03T05:28:57.447Z,336.00
2019-04-03T05:29:54.427Z,348.00
2019-04-03T05:30:54.416Z,352.00
2019-04-03T05:31:54.444Z,360.00
2019-04-03T05:32:54.471Z,364.00
2019-04-03T05:33:54.407Z,372.00
2019-04-03T05:34:54.380Z,380.00
2019-04-03T05:35:54.505Z,388.00
2019-04-03T05:36:54.407Z,392.00
2019-04-03T05:37:54.521Z,400.00
2019-04-03T05:38:54.366Z,408.00
2019-04-03T05:39:55.522Z,416.00
2019-04-03T05:40:56.126Z,424.00
2019-04-03T05:41:54.298Z,432.00
2019-04-03T05:42:54.278Z,440.00
2019-04-03T05:43:54.296Z,448.00
2019-04-03T05:44:54.262Z,456.00
2019-04-03T05:45:54.258Z,464.00
2019-04-03T05:46:54.312Z,472.00
2019-04-03T05:47:54.349Z,476.00
2019-04-03T05:48:54.444Z,488.00
2019-04-03T05:49:55.734Z,496.00
2019-04-03T05:50:54.265Z,504.00
2019-04-03T05:51:54.180Z,512.00
2019-04-03T05:52:54.179Z,524.00
2019-04-03T05:53:54.595Z,532.00
2019-04-03T05:54:54.367Z,544.00
2019-04-03T05:55:54.153Z,552.00
2019-04-03T05:56:54.223Z,564.00
2019-04-03T05:57:54.132Z,580.00
2019-04-03T05:58:56.963Z,592.00
2019-04-03T06:00:00.519Z,608.00
2019-04-03T06:01:04.247Z,620.00
2019-04-03T06:01:55.216Z,632.00
2019-04-03T06:02:56.926Z,648.00
2019-04-03T06:03:54.252Z,660.00
2019-04-03T06:04:54.086Z,672.00
2019-04-03T06:05:57.195Z,684.00
2019-04-03T06:06:54.023Z,696.00
2019-04-03T06:07:54.138Z,708.00
2019-04-03T06:08:56.502Z,720.00
2019-04-03T06:09:58.325Z,732.00
2019-04-03T06:10:54.067Z,736.00
2019-04-03T06:11:53.970Z,748.00
2019-04-03T06:12:53.976Z,756.00
2019-04-03T06:13:54.060Z,768.00
2019-04-03T06:14:54.005Z,776.00
2019-04-03T06:15:54.169Z,780.00
2019-04-03T06:16:56.115Z,784.00
2019-04-03T06:17:55.068Z,792.00
2019-04-03T06:18:54.209Z,792.00
2019-04-03T06:19:53.880Z,788.00
2019-04-03T06:20:53.867Z,788.00
2019-04-03T06:21:53.861Z,792.00
2019-04-03T06:22:54.100Z,808.00
2019-04-03T06:23:54.016Z,832.00
2019-04-03T06:24:55.552Z,856.00
2019-04-03T06:25:53.829Z,872.00
2019-04-03T06:26:53.810Z,884.00
2019-04-03T06:27:53.786Z,892.00
2019-04-03T06:28:53.985Z,900.00
2019-04-03T06:29:55.033Z,908.00
2019-04-03T06:30:55.505Z,900.00
2019-04-03T06:31:53.740Z,888.00
2019-04-03T06:32:55.014Z,872.00
2019-04-03T06:33:53.739Z,864.00
2019-04-03T06:34:53.706Z,856.00
2019-04-03T06:35:53.863Z,852.00
2019-04-03T06:36:53.713Z,852.00
2019-04-03T06:37:53.686Z,868.00
2019-04-03T06:38:54.277Z,880.00
2019-04-03T06:39:53.650Z,888.00
2019-04-03T06:40:53.645Z,900.00
2019-04-03T06:41:53.641Z,904.00
2019-04-03T06:42:53.626Z,908.00
2019-04-03T06:43:54.413Z,908.00
2019-04-03T06:44:54.063Z,912.00
2019-04-03T06:45:53.813Z,928.00
2019-04-03T06:46:54.813Z,952.00
2019-04-03T06:47:53.571Z,960.00
2019-04-03T06:48:55.217Z,964.00
2019-04-03T06:49:53.541Z,972.00
2019-04-03T06:50:53.706Z,972.00
2019-04-03T06:51:53.521Z,968.00
2019-04-03T06:52:53.736Z,956.00
2019-04-03T06:53:53.656Z,940.00
2019-04-03T06:54:53.488Z,932.00
2019-04-03T06:55:53.468Z,916.00
2019-04-03T06:56:53.467Z,908.00
2019-04-03T06:57:53.479Z,904.00
2019-04-03T06:58:53.483Z,896.00
2019-04-03T06:59:53.448Z,896.00
2019-04-03T07:00:54.722Z,856.00
2019-04-03T07:01:53.658Z,856.00
2019-04-03T07:02:53.398Z,844.00
2019-04-03T07:03:53.586Z,844.00
2019-04-03T07:04:53.407Z,832.00
2019-04-03T07:05:53.377Z,832.00
2019-04-03T07:06:55.715Z,840.00
2019-04-03T07:07:53.343Z,852.00
2019-04-03T07:08:53.335Z,868.00
2019-04-03T07:09:53.484Z,896.00
2019-04-03T07:10:55.267Z,924.00
2019-04-03T07:11:53.426Z,944.00
2019-04-03T07:12:53.292Z,964.00
2019-04-03T07:13:54.371Z,988.00
2019-04-03T07:14:53.290Z,1000.00
2019-04-03T07:15:55.854Z,1016.00
2019-04-03T07:16:53.471Z,1036.00
2019-04-03T07:17:53.545Z,1056.00
2019-04-03T07:18:53.398Z,1072.00
2019-04-03T07:19:53.232Z,1080.00
2019-04-03T07:20:53.193Z,1096.00
2019-04-03T07:21:55.437Z,1120.00
2019-04-03T07:22:53.185Z,1140.00
2019-04-03T07:23:53.350Z,1156.00
2019-04-03T07:24:53.172Z,1176.00
2019-04-03T07:25:53.257Z,1192.00
2019-04-03T07:26:53.129Z,1212.00
2019-04-03T07:27:53.127Z,1228.00
2019-04-03T07:28:53.101Z,1248.00
2019-04-03T07:29:53.232Z,1268.00
2019-04-03T07:30:53.954Z,1288.00
2019-04-03T07:31:55.232Z,1312.00
2019-04-03T07:32:53.068Z,1332.00
2019-04-03T07:33:53.047Z,1348.00
2019-04-03T07:34:53.120Z,1364.00
2019-04-03T07:35:53.044Z,1376.00
2019-04-03T07:36:53.036Z,1380.00
2019-04-03T07:37:53.006Z,1380.00
2019-04-03T07:38:53.088Z,1372.00
2019-04-03T07:39:53.071Z,1368.00
2019-04-03T07:40:52.974Z,1356.00
2019-04-03T07:41:54.164Z,1332.00
2019-04-03T07:42:55.369Z,1304.00
2019-04-03T07:43:52.955Z,1272.00
2019-04-03T07:44:52.954Z,1240.00
2019-04-03T07:45:52.921Z,1216.00
2019-04-03T07:46:54.859Z,1184.00
2019-04-03T07:47:52.899Z,1160.00
2019-04-03T07:48:52.886Z,1140.00
2019-04-03T07:49:53.133Z,1132.00
2019-04-03T07:50:53.041Z,1132.00
2019-04-03T07:51:53.004Z,1140.00
2019-04-03T07:52:53.029Z,1156.00
2019-04-03T07:53:52.959Z,1152.00
2019-04-03T07:54:54.082Z,1184.00
2019-04-03T07:55:55.103Z,1200.00
2019-04-03T07:56:53.080Z,1220.00
2019-04-03T07:57:52.789Z,1240.00
2019-04-03T07:58:52.767Z,1256.00
2019-04-03T07:59:53.071Z,1272.00
2019-04-03T08:00:52.767Z,1288.00
2019-04-03T08:01:52.747Z,1292.00
2019-04-03T08:02:52.726Z,1288.00
2019-04-03T08:03:53.409Z,1288.00
2019-04-03T08:04:55.724Z,1284.00
2019-04-03T08:05:56.039Z,1284.00
2019-04-03T08:06:52.689Z,1284.00
2019-04-03T08:07:52.909Z,1284.00
2019-04-03T08:09:05.556Z,1288.00
2019-04-03T08:09:53.669Z,1292.00
2019-04-03T08:10:52.900Z,1292.00
2019-04-03T08:11:52.629Z,1296.00
2019-04-03T08:12:52.630Z,1300.00
2019-04-03T08:13:52.614Z,1308.00
2019-04-03T08:14:52.599Z,1312.00
2019-04-03T08:15:52.616Z,1312.00
2019-04-03T08:16:52.569Z,1316.00
2019-04-03T08:17:52.566Z,1320.00
2019-04-03T08:18:52.564Z,1328.00
2019-04-03T08:19:54.662Z,1348.00
2019-04-03T08:20:52.560Z,1372.00
2019-04-03T08:21:52.545Z,1392.00
2019-04-03T08:22:52.727Z,1412.00
2019-04-03T08:23:52.510Z,1432.00
2019-04-03T08:24:53.711Z,1444.00
2019-04-03T08:25:54.271Z,1456.00
2019-04-03T08:26:52.777Z,1468.00
2019-04-03T08:27:54.548Z,1472.00
2019-04-03T08:28:52.497Z,1484.00
2019-04-03T08:29:52.425Z,1488.00
2019-04-03T08:30:52.444Z,1488.00
2019-04-03T08:31:52.501Z,1492.00
2019-04-03T08:32:52.635Z,1480.00
2019-04-03T08:33:52.454Z,1476.00
2019-04-03T08:34:52.376Z,1464.00
2019-04-03T08:35:52.389Z,1452.00
2019-04-03T08:36:52.346Z,1428.00
2019-04-03T08:37:52.353Z,1408.00
2019-04-03T08:38:52.337Z,1380.00
2019-04-03T08:39:52.326Z,1352.00
2019-04-03T08:40:53.443Z,1328.00
2019-04-03T08:41:53.785Z,1296.00
2019-04-03T08:42:52.289Z,1260.00
2019-04-03T08:43:52.274Z,1236.00
2019-04-03T08:44:52.321Z,1204.00
2019-04-03T08:45:52.277Z,1172.00
2019-04-03T08:46:52.256Z,1148.00
2019-04-03T08:47:52.345Z,1128.00
2019-04-03T08:48:54.318Z,1116.00
2019-04-03T08:49:52.422Z,1100.00
2019-04-03T08:50:52.227Z,1096.00
2019-04-03T08:51:52.384Z,1088.00
2019-04-03T08:52:52.358Z,1092.00
2019-04-03T08:53:54.100Z,1088.00
2019-04-03T08:54:52.168Z,1088.00
2019-04-03T08:55:52.216Z,1096.00
2019-04-03T08:56:52.148Z,1100.00
2019-04-03T08:57:52.927Z,1104.00
2019-04-03T08:58:52.117Z,1108.00
2019-04-03T08:59:52.099Z,1108.00
2019-04-03T09:00:52.137Z,1112.00
2019-04-03T09:01:54.970Z,1112.00
2019-04-03T09:02:52.071Z,1108.00
2019-04-03T09:03:52.057Z,1100.00
2019-04-03T09:04:52.044Z,1100.00
2019-04-03T09:05:54.081Z,1088.00
2019-04-03T09:06:54.133Z,1076.00
2019-04-03T09:07:52.010Z,1060.00
2019-04-03T09:08:52.001Z,1036.00
2019-04-03T09:09:51.985Z,1016.00
2019-04-03T09:10:52.028Z,1008.00
2019-04-03T09:11:51.973Z,1000.00
2019-04-03T09:12:51.953Z,1008.00
2019-04-03T09:13:54.378Z,1008.00
2019-04-03T09:14:51.929Z,1012.00
2019-04-03T09:15:52.187Z,1024.00
2019-04-03T09:16:51.927Z,1044.00
2019-04-03T09:17:51.893Z,1068.00
2019-04-03T09:18:51.889Z,1084.00
2019-04-03T09:19:51.884Z,1100.00
2019-04-03T09:20:51.866Z,1108.00
2019-04-03T09:21:51.868Z,1120.00
2019-04-03T09:22:53.944Z,1128.00
2019-04-03T09:23:51.833Z,1136.00
2019-04-03T09:24:52.206Z,1140.00
2019-04-03T09:25:51.855Z,1144.00
2019-04-03T09:26:51.965Z,1144.00
2019-04-03T09:27:52.066Z,1144.00
2019-04-03T09:28:51.801Z,1144.00
2019-04-03T09:29:51.759Z,1140.00
2019-04-03T09:30:54.018Z,1124.00
2019-04-03T09:31:52.488Z,1116.00
2019-04-03T09:32:53.399Z,1104.00
2019-04-03T09:33:51.721Z,1092.00
2019-04-03T09:34:51.707Z,1084.00
2019-04-03T09:35:51.692Z,1072.00
2019-04-03T09:36:51.997Z,1064.00
2019-04-03T09:37:51.683Z,1056.00
2019-04-03T09:38:51.714Z,1052.00
2019-04-03T09:39:51.672Z,1048.00
2019-04-03T09:40:51.647Z,1052.00
2019-04-03T09:41:51.713Z,1068.00
2019-04-03T09:42:52.027Z,1084.00
2019-04-03T09:43:51.860Z,1092.00
2019-04-03T09:44:51.840Z,1092.00
2019-04-03T09:45:51.649Z,1104.00
2019-04-03T09:46:51.854Z,1112.00
2019-04-03T09:47:51.581Z,1112.00
2019-04-03T09:48:51.634Z,1112.00
2019-04-03T09:49:51.531Z,1112.00
2019-04-03T09:50:51.538Z,1116.00
2019-04-03T09:51:52.901Z,1116.00
2019-04-03T09:52:54.043Z,1124.00
2019-04-03T09:53:51.493Z,1124.00
2019-04-03T09:54:51.713Z,1128.00
2019-04-03T09:55:51.466Z,1132.00
2019-04-03T09:56:59.459Z,1132.00
2019-04-03T09:57:53.323Z,1132.00
2019-04-03T09:58:51.689Z,1136.00
2019-04-03T09:59:51.422Z,1140.00
2019-04-03T10:00:51.415Z,1144.00
2019-04-03T10:01:51.416Z,1148.00
2019-04-03T10:02:51.957Z,1152.00
2019-04-03T10:03:53.776Z,1152.00
2019-04-03T10:04:51.366Z,1156.00
2019-04-03T10:05:51.372Z,1152.00
2019-04-03T10:06:51.372Z,1152.00
2019-04-03T10:07:51.565Z,1148.00
2019-04-03T10:08:51.451Z,1144.00
2019-04-03T10:09:53.751Z,1140.00
2019-04-03T10:10:51.339Z,1144.00
2019-04-03T10:11:52.483Z,1148.00
2019-04-03T10:12:53.701Z,1148.00
2019-04-03T10:13:51.280Z,1152.00
2019-04-03T10:14:51.695Z,1152.00
2019-04-03T10:15:51.264Z,1148.00
2019-04-03T10:16:51.262Z,1152.00
2019-04-03T10:17:51.235Z,1140.00
2019-04-03T10:18:51.443Z,1140.00
2019-04-03T10:19:51.226Z,1140.00
2019-04-03T10:20:51.192Z,1140.00
2019-04-03T10:21:52.872Z,1140.00
2019-04-03T10:22:51.203Z,1132.00
2019-04-03T10:23:51.192Z,1132.00
2019-04-03T10:24:51.147Z,1132.00
2019-04-03T10:25:53.055Z,1116.00
2019-04-03T10:26:51.165Z,1124.00
2019-04-03T10:27:51.112Z,1112.00
2019-04-03T10:28:51.100Z,1104.00
2019-04-03T10:29:51.201Z,1112.00
2019-04-03T10:30:52.843Z,1116.00
2019-04-03T10:31:51.104Z,1116.00
2019-04-03T10:32:51.063Z,1108.00
2019-04-03T10:33:51.054Z,1108.00
2019-04-03T10:34:51.161Z,1124.00
2019-04-03T10:35:51.488Z,1136.00
2019-04-03T10:36:51.036Z,1144.00
2019-04-03T10:37:51.004Z,1172.00
2019-04-03T10:38:51.459Z,1200.00
2019-04-03T10:39:53.088Z,1212.00
2019-04-03T10:40:50.998Z,1216.00
2019-04-03T10:41:50.981Z,1228.00
2019-04-03T10:42:50.963Z,1236.00
2019-04-03T10:43:51.082Z,1248.00
2019-04-03T10:44:51.265Z,1256.00
2019-04-03T10:45:50.916Z,1256.00
2019-04-03T10:46:51.238Z,1256.00
2019-04-03T10:47:50.896Z,1240.00
2019-04-03T10:48:50.886Z,1240.00
2019-04-03T10:49:50.873Z,1264.00
2019-04-03T10:50:50.862Z,1288.00
2019-04-03T10:51:50.916Z,1304.00
2019-04-03T10:52:50.983Z,1312.00
2019-04-03T10:53:52.326Z,1332.00
2019-04-03T10:54:50.821Z,1368.00
2019-04-03T10:55:50.811Z,1428.00
2019-04-03T10:56:51.056Z,1496.00
2019-04-03T10:57:50.842Z,1544.00
2019-04-03T10:58:51.105Z,1576.00
2019-04-03T10:59:54.351Z,1600.00
2019-04-03T11:00:50.762Z,1640.00
2019-04-03T11:01:51.114Z,1688.00
2019-04-03T11:02:50.788Z,1732.00
2019-04-03T11:03:50.861Z,1772.00
2019-04-03T11:04:50.828Z,1796.00
2019-04-03T11:05:50.700Z,1816.00
2019-04-03T11:06:50.708Z,1820.00
2019-04-03T11:07:50.682Z,1836.00
2019-04-03T11:08:50.994Z,1848.00
2019-04-03T11:09:50.657Z,1872.00
2019-04-03T11:10:50.734Z,1876.00
2019-04-03T11:11:50.660Z,1900.00
2019-04-03T11:12:50.973Z,1944.00
2019-04-03T11:13:50.901Z,2004.00
2019-04-03T11:14:50.599Z,2072.00
2019-04-03T11:15:50.585Z,2136.00
2019-04-03T11:16:50.598Z,2180.00
2019-04-03T11:17:50.548Z,2216.00
2019-04-03T11:18:58.494Z,2248.00
2019-04-03T11:19:51.671Z,2268.00
2019-04-03T11:20:50.529Z,2280.00
2019-04-03T11:21:50.888Z,2284.00
2019-04-03T11:22:50.722Z,2264.00
2019-04-03T11:23:50.533Z,2236.00
2019-04-03T11:24:50.877Z,2224.00
2019-04-03T11:25:50.474Z,2224.00
2019-04-03T11:26:51.780Z,2216.00
2019-04-03T11:27:50.716Z,2204.00
2019-04-03T11:28:50.464Z,2184.00
2019-04-03T11:29:50.528Z,2144.00
2019-04-03T11:30:52.816Z,2076.00
2019-04-03T11:31:50.394Z,2012.00
2019-04-03T11:32:50.477Z,1980.00
2019-04-03T11:33:51.480Z,1952.00
2019-04-03T11:34:50.376Z,1924.00
2019-04-03T11:35:52.316Z,1900.00
2019-04-03T11:36:50.431Z,1880.00
2019-04-03T11:37:50.593Z,1864.00
2019-04-03T11:38:50.344Z,1852.00
2019-04-03T11:40:02.023Z,1864.00
2019-04-03T11:40:51.646Z,1896.00
2019-04-03T11:41:50.294Z,1932.00
2019-04-03T11:42:50.344Z,1948.00
2019-04-03T11:43:50.288Z,1956.00
2019-04-03T11:44:50.346Z,1972.00
2019-04-03T11:45:50.243Z,1980.00
2019-04-03T11:46:50.233Z,1992.00
2019-04-03T11:47:50.246Z,1992.00
2019-04-03T11:48:50.208Z,1996.00
2019-04-03T11:49:52.377Z,1992.00
2019-04-03T11:50:50.183Z,2004.00
2019-04-03T11:51:50.181Z,2004.00
2019-04-03T11:52:52.064Z,1988.00
2019-04-03T11:53:50.165Z,1968.00
2019-04-03T11:54:52.333Z,1940.00
2019-04-03T11:55:50.135Z,1908.00
2019-04-03T11:56:50.143Z,1816.00
2019-04-03T11:57:50.146Z,1768.00
2019-04-03T11:58:52.071Z,1712.00
2019-04-03T11:59:50.207Z,1704.00
2019-04-03T12:00:50.252Z,1692.00
2019-04-03T12:01:50.067Z,1672.00
2019-04-03T12:02:50.103Z,1600.00
2019-04-03T12:03:51.471Z,1548.00
2019-04-03T12:04:50.135Z,1520.00
2019-04-03T12:05:50.338Z,1512.00
2019-04-03T12:06:51.980Z,1584.00
2019-04-03T12:07:50.140Z,1628.00
2019-04-03T12:08:50.320Z,1660.00
2019-04-03T12:09:49.980Z,1696.00
2019-04-03T12:10:49.981Z,1748.00
2019-04-03T12:11:50.194Z,1784.00
2019-04-03T12:12:50.251Z,1832.00
2019-04-03T12:13:50.355Z,1832.00
2019-04-03T12:14:50.223Z,1832.00
2019-04-03T12:15:52.147Z,1808.00
2019-04-03T12:16:49.932Z,1764.00
2019-04-03T12:17:49.963Z,1724.00
2019-04-03T12:18:49.913Z,1704.00
2019-04-03T12:19:49.890Z,1668.00
2019-04-03T12:20:50.417Z,1640.00
2019-04-03T12:21:50.863Z,1612.00
2019-04-03T12:22:49.855Z,1572.00
2019-04-03T12:23:49.839Z,1552.00
2019-04-03T12:24:49.831Z,1528.00
2019-04-03T12:25:50.150Z,1508.00
2019-04-03T12:26:51.736Z,1488.00
2019-04-03T12:27:49.998Z,1476.00
2019-04-03T12:28:50.171Z,1456.00
2019-04-03T12:29:49.802Z,1460.00
2019-04-03T12:30:49.783Z,1460.00
2019-04-03T12:31:50.101Z,1440.00
2019-04-03T12:32:50.237Z,1420.00
2019-04-03T12:33:54.927Z,1400.00
2019-04-03T12:34:50.975Z,1384.00
2019-04-03T12:35:49.703Z,1356.00
2019-04-03T12:36:50.179Z,1316.00